Time,TemperatureF,DewpointF,PressureIn,WindDirection,WindDirectionDegrees,WindSpeedMPH,WindSpeedGustMPH,Humidity,HourlyPrecipIn,Conditions,Clouds,dailyrainin,SoftwareType,DateUTC
2013-02-21 00:00:00,34.8,13.5,30.16,NNE,18,1.0,2.0,41,0.00,,,0.00,Wunderground v.1.15,2013-02-21 05:00:00,
2013-02-21 00:01:00,34.7,13.9,30.16,NNE,20,2.0,2.0,42,0.00,,,0.00,Wunderground v.1.15,2013-02-21 05:01:00,
2013-02-21 00:02:00,34.6,14.4,30.16,NE,42,2.0,2.0,43,0.00,,,0.00,Wunderground v.1.15,2013-02-21 05:02:00,
2013-02-21 00:06:00,34.3,15.1,30.16,NNE,18,1.0,2.0,45,0.00,,,0.00,Wunderground v.1.15,2013-02-21 05:06:00,
2013-02-21 00:12:00,34.0,14.9,30.15,NE,37,2.0,2.0,45,0.00,,,0.00,Wunderground v.1.15,2013-02-21 05:12:00,
2013-02-21 00:18:00,34.0,14.9,30.15,NE,44,1.0,1.0,45,0.00,,,0.00,Wunderground v.1.15,2013-02-21 05:18:00,
2013-02-21 00:24:00,33.5,16.4,30.15,NNE,22,3.0,3.0,49,0.00,,,0.00,Wunderground v.1.15,2013-02-21 05:24:00,
2013-02-21 00:30:00,33.1,15.0,30.15,NNE,25,0.0,2.0,47,0.00,,,0.00,Wunderground v.1.15,2013-02-21 05:30:00,
2013-02-21 00:36:00,32.9,15.8,30.15,NNE,23,0.0,2.0,49,0.00,,,0.00,Wunderground v.1.15,2013-02-21 05:36:00,
2013-02-21 00:42:00,32.3,15.7,30.16,NNE,12,0.0,1.0,50,0.00,,,0.00,Wunderground v.1.15,2013-02-21 05:42:00,
2013-02-21 00:47:00,30.8,16.1,30.16,ENE,77,0.0,1.0,54,0.00,,,0.00,Wunderground v.1.15,2013-02-21 05:47:00,
2013-02-21 00:53:00,30.0,16.2,30.16,ENE,76,0.0,1.0,56,0.00,,,0.00,Wunderground v.1.15,2013-02-21 05:53:00,
2013-02-21 00:58:00,29.5,16.9,30.17,ENE,75,0.0,0.0,59,0.00,,,0.00,Wunderground v.1.15,2013-02-21 05:58:00,
2013-02-21 01:04:00,29.1,19.5,30.16,NE,41,1.0,3.0,67,0.00,,,0.00,Wunderground v.1.15,2013-02-21 06:04:00,
2013-02-21 01:10:00,28.6,18.0,30.15,East,86,1.0,1.0,64,0.00,,,0.00,Wunderground v.1.15,2013-02-21 06:10:00,
2013-02-21 01:16:00,28.4,17.8,30.15,East,86,0.0,1.0,64,0.00,,,0.00,Wunderground v.1.15,2013-02-21 06:16:00,
2013-02-21 01:22:00,28.2,18.3,30.14,North,1,0.0,2.0,66,0.00,,,0.00,Wunderground v.1.15,2013-02-21 06:22:00,
2013-02-21 01:28:00,28.0,17.7,30.15,ESE,121,0.0,1.0,65,0.00,,,0.00,Wunderground v.1.15,2013-02-21 06:28:00,
2013-02-21 01:34:00,28.0,18.1,30.15,SW,217,0.0,1.0,66,0.00,,,0.00,Wunderground v.1.15,2013-02-21 06:34:00,
2013-02-21 01:39:00,27.7,17.8,30.15,SW,217,0.0,0.0,66,0.00,,,0.00,Wunderground v.1.15,2013-02-21 06:39:00,
2013-02-21 01:45:00,27.4,17.9,30.15,SW,217,0.0,0.0,67,0.00,,,0.00,Wunderground v.1.15,2013-02-21 06:45:00,
2013-02-21 01:51:00,27.0,18.2,30.16,SW,219,0.0,0.0,69,0.00,,,0.00,Wunderground v.1.15,2013-02-21 06:51:00,
2013-02-21 01:57:00,26.6,18.1,30.16,SW,219,0.0,0.0,70,0.00,,,0.00,Wunderground v.1.15,2013-02-21 06:57:00,
2013-02-21 02:02:00,26.3,18.2,30.16,SW,220,0.0,0.0,71,0.00,,,0.00,Wunderground v.1.15,2013-02-21 07:02:00,
2013-02-21 02:07:00,26.1,18.0,30.16,SW,224,0.0,0.0,71,0.00,,,0.00,Wunderground v.1.15,2013-02-21 07:07:00,
2013-02-21 02:12:00,25.9,17.8,30.16,WSW,241,0.0,1.0,71,0.00,,,0.00,Wunderground v.1.15,2013-02-21 07:12:00,
2013-02-21 02:17:00,26.0,19.5,30.16,NNE,12,0.0,0.0,76,0.00,,,0.00,Wunderground v.1.15,2013-02-21 07:17:00,
2013-02-21 02:22:00,26.1,18.9,30.16,NNE,12,0.0,1.0,74,0.00,,,0.00,Wunderground v.1.15,2013-02-21 07:22:00,
2013-02-21 02:27:00,25.8,18.7,30.16,NNE,12,0.0,0.0,74,0.00,,,0.00,Wunderground v.1.15,2013-02-21 07:27:00,
2013-02-21 02:32:00,25.5,18.7,30.17,NNE,12,0.0,0.0,75,0.00,,,0.00,Wunderground v.1.15,2013-02-21 07:32:00,
2013-02-21 02:37:00,25.5,18.4,30.17,NNE,12,0.0,0.0,74,0.00,,,0.00,Wunderground v.1.15,2013-02-21 07:37:00,
2013-02-21 02:42:00,25.3,17.9,30.17,NNE,12,0.0,0.0,73,0.00,,,0.00,Wunderground v.1.15,2013-02-21 07:42:00,
2013-02-21 02:47:00,25.0,17.9,30.17,North,11,0.0,0.0,74,0.00,,,0.00,Wunderground v.1.15,2013-02-21 07:47:00,
2013-02-21 02:52:00,24.8,17.7,30.17,NNE,12,0.0,0.0,74,0.00,,,0.00,Wunderground v.1.15,2013-02-21 07:52:00,
2013-02-21 02:57:00,24.8,18.0,30.17,NNE,12,0.0,0.0,75,0.00,,,0.00,Wunderground v.1.15,2013-02-21 07:57:00,
2013-02-21 03:02:00,24.5,17.7,30.17,NNE,12,0.0,0.0,75,0.00,,,0.00,Wunderground v.1.15,2013-02-21 08:02:00,
2013-02-21 03:07:00,24.2,17.7,30.17,North,11,0.0,0.0,76,0.00,,,0.00,Wunderground v.1.15,2013-02-21 08:07:00,
2013-02-21 03:12:00,24.0,17.8,30.17,NNE,12,0.0,0.0,77,0.00,,,0.00,Wunderground v.1.15,2013-02-21 08:12:00,
2013-02-21 03:17:00,23.9,18.3,30.17,North,6,0.0,0.0,79,0.00,,,0.00,Wunderground v.1.15,2013-02-21 08:17:00,
2013-02-21 03:22:00,24.0,19.3,30.17,North,6,0.0,1.0,82,0.00,,,0.00,Wunderground v.1.15,2013-02-21 08:22:00,
2013-02-21 03:27:00,24.0,18.7,30.17,North,6,0.0,0.0,80,0.00,,,0.00,Wunderground v.1.15,2013-02-21 08:27:00,
2013-02-21 03:32:00,23.9,18.3,30.17,North,6,0.0,1.0,79,0.00,,,0.00,Wunderground v.1.15,2013-02-21 08:32:00,
2013-02-21 03:38:00,23.8,18.5,30.17,North,6,0.0,0.0,80,0.00,,,0.00,Wunderground v.1.15,2013-02-21 08:38:00,
2013-02-21 03:43:00,23.6,18.3,30.17,North,6,0.0,0.0,80,0.00,,,0.00,Wunderground v.1.15,2013-02-21 08:43:00,
2013-02-21 03:48:00,23.4,17.8,30.17,North,6,0.0,0.0,79,0.00,,,0.00,Wunderground v.1.15,2013-02-21 08:48:00,
2013-02-21 03:53:00,23.2,17.9,30.17,North,6,0.0,1.0,80,0.00,,,0.00,Wunderground v.1.15,2013-02-21 08:53:00,
2013-02-21 03:58:00,23.1,18.1,30.17,North,6,0.0,0.0,81,0.00,,,0.00,Wunderground v.1.15,2013-02-21 08:58:00,
2013-02-21 04:03:00,23.1,18.4,30.17,North,6,0.0,0.0,82,0.00,,,0.00,Wunderground v.1.15,2013-02-21 09:03:00,
2013-02-21 04:08:00,23.1,18.7,30.17,North,6,0.0,0.0,83,0.00,,,0.00,Wunderground v.1.15,2013-02-21 09:08:00,
2013-02-21 04:13:00,22.9,18.2,30.17,North,6,0.0,0.0,82,0.00,,,0.00,Wunderground v.1.15,2013-02-21 09:13:00,
2013-02-21 04:18:00,22.8,18.1,30.17,North,6,0.0,0.0,82,0.00,,,0.00,Wunderground v.1.15,2013-02-21 09:18:00,
2013-02-21 04:23:00,22.6,17.6,30.17,North,6,0.0,0.0,81,0.00,,,0.00,Wunderground v.1.15,2013-02-21 09:23:00,
2013-02-21 04:28:00,22.4,17.7,30.17,North,6,0.0,1.0,82,0.00,,,0.00,Wunderground v.1.15,2013-02-21 09:28:00,
2013-02-21 04:33:00,22.5,17.8,30.17,North,6,0.0,1.0,82,0.00,,,0.00,Wunderground v.1.15,2013-02-21 09:33:00,
2013-02-21 04:38:00,22.4,17.7,30.17,North,6,0.0,1.0,82,0.00,,,0.00,Wunderground v.1.15,2013-02-21 09:38:00,
2013-02-21 04:43:00,22.2,17.5,30.17,North,6,0.0,1.0,82,0.00,,,0.00,Wunderground v.1.15,2013-02-21 09:43:00,
2013-02-21 04:48:00,22.0,17.6,30.17,North,6,0.0,0.0,83,0.00,,,0.00,Wunderground v.1.15,2013-02-21 09:48:00,
2013-02-21 04:53:00,22.0,17.6,30.17,North,6,0.0,0.0,83,0.00,,,0.00,Wunderground v.1.15,2013-02-21 09:53:00,
2013-02-21 04:58:00,22.0,17.6,30.17,North,6,0.0,0.0,83,0.00,,,0.00,Wunderground v.1.15,2013-02-21 09:58:00,
2013-02-21 05:03:00,21.9,17.2,30.18,North,6,0.0,0.0,82,0.00,,,0.00,Wunderground v.1.15,2013-02-21 10:03:00,
2013-02-21 05:08:00,21.9,17.5,30.18,North,6,0.0,0.0,83,0.00,,,0.00,Wunderground v.1.15,2013-02-21 10:08:00,
2013-02-21 05:13:00,21.8,17.4,30.18,North,6,0.0,0.0,83,0.00,,,0.00,Wunderground v.1.15,2013-02-21 10:13:00,
2013-02-21 05:18:00,21.6,17.2,30.18,North,6,0.0,0.0,83,0.00,,,0.00,Wunderground v.1.15,2013-02-21 10:18:00,
2013-02-21 05:23:00,21.5,17.1,30.18,North,6,0.0,0.0,83,0.00,,,0.00,Wunderground v.1.15,2013-02-21 10:23:00,
2013-02-21 05:28:00,21.4,17.0,30.19,North,6,0.0,0.0,83,0.00,,,0.00,Wunderground v.1.15,2013-02-21 10:28:00,
2013-02-21 05:33:00,21.2,16.8,30.19,North,6,0.0,0.0,83,0.00,,,0.00,Wunderground v.1.15,2013-02-21 10:33:00,
2013-02-21 05:38:00,21.1,17.0,30.19,North,6,0.0,0.0,84,0.00,,,0.00,Wunderground v.1.15,2013-02-21 10:38:00,
2013-02-21 05:43:00,21.0,16.9,30.20,North,6,0.0,0.0,84,0.00,,,0.00,Wunderground v.1.15,2013-02-21 10:43:00,
2013-02-21 05:48:00,20.8,16.5,30.20,North,6,0.0,0.0,83,0.00,,,0.00,Wunderground v.1.15,2013-02-21 10:48:00,
2013-02-21 05:53:00,20.5,16.4,30.20,North,6,0.0,0.0,84,0.00,,,0.00,Wunderground v.1.15,2013-02-21 10:53:00,
2013-02-21 05:58:00,20.5,16.7,30.20,North,6,0.0,0.0,85,0.00,,,0.00,Wunderground v.1.15,2013-02-21 10:58:00,
2013-02-21 06:03:00,20.4,16.6,30.20,North,6,0.0,0.0,85,0.00,,,0.00,Wunderground v.1.15,2013-02-21 11:03:00,
2013-02-21 06:08:00,20.3,16.5,30.21,North,6,0.0,0.0,85,0.00,,,0.00,Wunderground v.1.15,2013-02-21 11:08:00,
2013-02-21 06:13:00,20.2,16.7,30.21,North,6,0.0,0.0,86,0.00,,,0.00,Wunderground v.1.15,2013-02-21 11:13:00,
2013-02-21 06:18:00,20.2,16.7,30.21,North,6,0.0,0.0,86,0.00,,,0.00,Wunderground v.1.15,2013-02-21 11:18:00,
2013-02-21 06:23:00,20.2,16.7,30.21,North,6,0.0,0.0,86,0.00,,,0.00,Wunderground v.1.15,2013-02-21 11:23:00,
2013-02-21 06:29:00,20.0,16.5,30.21,North,6,0.0,0.0,86,0.00,,,0.00,Wunderground v.1.15,2013-02-21 11:29:00,
2013-02-21 06:34:00,19.8,16.6,30.21,North,6,0.0,0.0,87,0.00,,,0.00,Wunderground v.1.15,2013-02-21 11:34:00,
2013-02-21 06:39:00,20.1,16.9,30.21,North,6,0.0,0.0,87,0.00,,,0.00,Wunderground v.1.15,2013-02-21 11:39:00,
2013-02-21 06:44:00,20.1,16.9,30.21,North,6,0.0,0.0,87,0.00,,,0.00,Wunderground v.1.15,2013-02-21 11:44:00,
2013-02-21 06:49:00,20.1,16.9,30.22,North,6,0.0,0.0,87,0.00,,,0.00,Wunderground v.1.15,2013-02-21 11:49:00,
2013-02-21 06:54:00,20.1,16.9,30.22,North,6,0.0,0.0,87,0.00,,,0.00,Wunderground v.1.15,2013-02-21 11:54:00,
2013-02-21 06:59:00,20.1,16.9,30.21,NNE,16,1.0,1.0,87,0.00,,,0.00,Wunderground v.1.15,2013-02-21 11:59:00,
2013-02-21 07:04:00,20.1,16.9,30.21,NNE,16,0.0,2.0,87,0.00,,,0.00,Wunderground v.1.15,2013-02-21 12:04:00,
2013-02-21 07:09:00,20.0,16.8,30.22,NNE,16,0.0,0.0,87,0.00,,,0.00,Wunderground v.1.15,2013-02-21 12:09:00,
2013-02-21 07:14:00,19.9,16.7,30.22,NNE,19,0.0,1.0,87,0.00,,,0.00,Wunderground v.1.15,2013-02-21 12:14:00,
2013-02-21 07:19:00,20.0,17.0,30.22,NNE,18,0.0,0.0,88,0.00,,,0.00,Wunderground v.1.15,2013-02-21 12:19:00,
2013-02-21 07:24:00,20.1,17.1,30.22,NNE,18,0.0,1.0,88,0.00,,,0.00,Wunderground v.1.15,2013-02-21 12:24:00,
2013-02-21 07:29:00,20.2,17.0,30.22,North,4,0.0,0.0,87,0.00,,,0.00,Wunderground v.1.15,2013-02-21 12:29:00,
2013-02-21 07:34:00,20.3,17.3,30.23,North,4,0.0,1.0,88,0.00,,,0.00,Wunderground v.1.15,2013-02-21 12:34:00,
2013-02-21 07:39:00,20.5,17.5,30.23,NNE,23,0.0,0.0,88,0.00,,,0.00,Wunderground v.1.15,2013-02-21 12:39:00,
2013-02-21 07:44:00,20.8,17.5,30.23,NNE,23,0.0,0.0,87,0.00,,,0.00,Wunderground v.1.15,2013-02-21 12:44:00,
2013-02-21 07:49:00,21.1,18.1,30.23,NNE,22,0.0,0.0,88,0.00,,,0.00,Wunderground v.1.15,2013-02-21 12:49:00,
2013-02-21 07:54:00,21.5,18.2,30.23,NNE,22,0.0,0.0,87,0.00,,,0.00,Wunderground v.1.15,2013-02-21 12:54:00,
2013-02-21 07:59:00,22.5,18.9,30.23,NNE,20,0.0,0.0,86,0.00,,,0.00,Wunderground v.1.15,2013-02-21 12:59:00,
2013-02-21 08:04:00,23.6,19.2,30.23,NNE,20,0.0,1.0,83,0.00,,,0.00,Wunderground v.1.15,2013-02-21 13:04:00,
2013-02-21 08:09:00,24.4,19.7,30.23,NNE,20,0.0,0.0,82,0.00,,,0.00,Wunderground v.1.15,2013-02-21 13:09:00,
2013-02-21 08:14:00,25.1,20.1,30.23,NNE,20,0.0,0.0,81,0.00,,,0.00,Wunderground v.1.15,2013-02-21 13:14:00,
2013-02-21 08:19:00,25.9,20.6,30.23,NNE,20,0.0,1.0,80,0.00,,,0.00,Wunderground v.1.15,2013-02-21 13:19:00,
2013-02-21 08:24:00,26.9,21.3,30.24,NNE,20,0.0,1.0,79,0.00,,,0.00,Wunderground v.1.15,2013-02-21 13:24:00,
2013-02-21 08:29:00,28.2,21.9,30.24,NNE,20,0.0,0.0,77,0.00,,,0.00,Wunderground v.1.15,2013-02-21 13:29:00,
2013-02-21 08:34:00,28.9,21.3,30.24,NNE,20,0.0,1.0,73,0.00,,,0.00,Wunderground v.1.15,2013-02-21 13:34:00,
2013-02-21 08:39:00,29.6,22.3,30.24,NNE,20,0.0,0.0,74,0.00,,,0.00,Wunderground v.1.15,2013-02-21 13:39:00,
2013-02-21 08:44:00,30.5,21.9,30.24,NNE,20,0.0,0.0,70,0.00,,,0.00,Wunderground v.1.15,2013-02-21 13:44:00,
2013-02-21 08:49:00,31.4,21.7,30.24,NNE,20,0.0,0.0,67,0.00,,,0.00,Wunderground v.1.15,2013-02-21 13:49:00,
2013-02-21 08:54:00,32.1,21.3,30.24,WSW,252,1.0,2.0,64,0.00,,,0.00,Wunderground v.1.15,2013-02-21 13:54:00,
2013-02-21 08:59:00,32.8,21.2,30.25,SSW,204,1.0,2.0,62,0.00,,,0.00,Wunderground v.1.15,2013-02-21 13:59:00,
2013-02-21 09:04:00,33.6,20.8,30.25,West,274,1.0,2.0,59,0.00,,,0.00,Wunderground v.1.15,2013-02-21 14:04:00,
2013-02-21 09:09:00,34.4,20.3,30.25,NE,44,0.0,1.0,56,0.00,,,0.00,Wunderground v.1.15,2013-02-21 14:09:00,
2013-02-21 09:14:00,35.3,20.3,30.24,WNW,300,1.0,2.0,54,0.00,,,0.00,Wunderground v.1.15,2013-02-21 14:14:00,
2013-02-21 09:19:00,36.2,20.2,30.24,ENE,72,0.0,2.0,52,0.00,,,0.00,Wunderground v.1.15,2013-02-21 14:19:00,
2013-02-21 09:24:00,37.0,19.6,30.24,West,271,2.0,4.0,49,0.00,,,0.00,Wunderground v.1.15,2013-02-21 14:24:00,
2013-02-21 09:29:00,37.3,19.4,30.23,NNW,343,0.0,2.0,48,0.00,,,0.00,Wunderground v.1.15,2013-02-21 14:29:00,
2013-02-21 09:34:00,37.9,18.9,30.23,East,88,2.0,4.0,46,0.00,,,0.00,Wunderground v.1.15,2013-02-21 14:34:00,
2013-02-21 09:39:00,38.5,18.4,30.23,NNW,340,3.0,3.0,44,0.00,,,0.00,Wunderground v.1.15,2013-02-21 14:39:00,
2013-02-21 09:44:00,38.8,17.6,30.23,West,280,1.0,3.0,42,0.00,,,0.00,Wunderground v.1.15,2013-02-21 14:44:00,
2013-02-21 09:49:00,39.1,17.9,30.24,ESE,112,1.0,4.0,42,0.00,,,0.00,Wunderground v.1.15,2013-02-21 14:49:00,
2013-02-21 09:54:00,39.6,17.8,30.23,North,9,0.0,4.0,41,0.00,,,0.00,Wunderground v.1.15,2013-02-21 14:54:00,
2013-02-21 09:59:00,39.9,16.9,30.23,WSW,245,1.0,4.0,39,0.00,,,0.00,Wunderground v.1.15,2013-02-21 14:59:00,
2013-02-21 10:05:00,40.3,19.0,30.23,SE,128,1.0,5.0,42,0.00,,,0.00,Wunderground v.1.15,2013-02-21 15:05:00,
2013-02-21 10:10:00,40.9,17.2,30.23,WNW,297,0.0,3.0,38,0.00,,,0.00,Wunderground v.1.15,2013-02-21 15:10:00,
2013-02-21 10:15:00,41.2,18.1,30.24,WSW,255,0.0,4.0,39,0.00,,,0.00,Wunderground v.1.15,2013-02-21 15:15:00,
2013-02-21 10:20:00,41.7,17.3,30.23,NNE,27,3.0,5.0,37,0.00,,,0.00,Wunderground v.1.15,2013-02-21 15:20:00,
2013-02-21 10:25:00,42.1,18.3,30.23,West,269,2.0,5.0,38,0.00,,,0.00,Wunderground v.1.15,2013-02-21 15:25:00,
2013-02-21 10:30:00,42.0,17.6,30.23,NNW,329,1.0,3.0,37,0.00,,,0.00,Wunderground v.1.15,2013-02-21 15:30:00,
2013-02-21 10:35:00,42.3,17.8,30.23,West,264,2.0,6.0,37,0.00,,,0.00,Wunderground v.1.15,2013-02-21 15:35:00,
2013-02-21 10:40:00,42.3,17.8,30.23,West,266,0.0,4.0,37,0.00,,,0.00,Wunderground v.1.15,2013-02-21 15:40:00,
2013-02-21 10:45:00,43.0,17.2,30.23,North,9,0.0,4.0,35,0.00,,,0.00,Wunderground v.1.15,2013-02-21 15:45:00,
2013-02-21 10:50:00,43.7,17.8,30.23,North,4,1.0,5.0,35,0.00,,,0.00,Wunderground v.1.15,2013-02-21 15:50:00,
2013-02-21 10:55:00,44.3,16.3,30.23,North,355,1.0,5.0,32,0.00,,,0.00,Wunderground v.1.15,2013-02-21 15:55:00,
2013-02-21 11:00:00,44.3,17.0,30.23,West,259,4.0,7.0,33,0.00,,,0.00,Wunderground v.1.15,2013-02-21 16:00:00,
2013-02-21 11:05:00,44.2,16.9,30.22,East,91,1.0,7.0,33,0.00,,,0.00,Wunderground v.1.15,2013-02-21 16:05:00,
2013-02-21 11:10:00,45.1,18.4,30.22,SW,229,1.0,3.0,34,0.00,,,0.00,Wunderground v.1.15,2013-02-21 16:10:00,
2013-02-21 11:15:00,45.2,15.6,30.23,NW,305,1.0,6.0,30,0.00,,,0.00,Wunderground v.1.15,2013-02-21 16:15:00,
2013-02-21 11:20:00,45.4,17.2,30.23,East,96,2.0,4.0,32,0.00,,,0.00,Wunderground v.1.15,2013-02-21 16:20:00,
2013-02-21 11:25:00,45.7,16.7,30.23,West,267,1.0,5.0,31,0.00,,,0.00,Wunderground v.1.15,2013-02-21 16:25:00,
2013-02-21 11:30:00,46.3,18.0,30.23,NW,305,6.0,6.0,32,0.00,,,0.00,Wunderground v.1.15,2013-02-21 16:30:00,
2013-02-21 11:35:00,46.6,18.3,30.22,West,266,0.0,7.0,32,0.00,,,0.00,Wunderground v.1.15,2013-02-21 16:35:00,
2013-02-21 11:40:00,47.1,17.2,30.22,West,278,3.0,7.0,30,0.00,,,0.00,Wunderground v.1.15,2013-02-21 16:40:00,
2013-02-21 11:45:00,46.6,15.2,30.22,WSW,245,5.0,9.0,28,0.00,,,0.00,Wunderground v.1.15,2013-02-21 16:45:00,
2013-02-21 11:50:00,46.7,17.6,30.21,ENE,71,2.0,6.0,31,0.00,,,0.00,Wunderground v.1.15,2013-02-21 16:50:00,
2013-02-21 11:56:00,47.4,18.2,30.21,ESE,119,3.0,6.0,31,0.00,,,0.00,Wunderground v.1.15,2013-02-21 16:56:00,
2013-02-21 12:01:00,48.0,16.4,30.21,WSW,243,2.0,5.0,28,0.00,,,0.00,Wunderground v.1.15,2013-02-21 17:01:00,
2013-02-21 12:05:00,48.4,16.7,30.21,ENE,76,2.0,6.0,28,0.00,,,0.00,Wunderground v.1.15,2013-02-21 17:05:00,
2013-02-21 12:11:00,48.7,17.0,30.20,West,267,1.0,4.0,28,0.00,,,0.00,Wunderground v.1.15,2013-02-21 17:11:00,
2013-02-21 12:16:00,49.0,17.3,30.20,NW,311,3.0,5.0,28,0.00,,,0.00,Wunderground v.1.15,2013-02-21 17:16:00,
2013-02-21 12:21:00,49.1,15.6,30.19,West,259,2.0,8.0,26,0.00,,,0.00,Wunderground v.1.15,2013-02-21 17:21:00,
2013-02-21 12:26:00,49.8,17.1,30.19,NE,40,2.0,8.0,27,0.00,,,0.00,Wunderground v.1.15,2013-02-21 17:26:00,
2013-02-21 12:31:00,50.5,17.7,30.19,WNW,294,3.0,4.0,27,0.00,,,0.00,Wunderground v.1.15,2013-02-21 17:31:00,
2013-02-21 12:36:00,49.8,14.4,30.18,SW,219,1.0,6.0,24,0.00,,,0.00,Wunderground v.1.15,2013-02-21 17:36:00,
2013-02-21 12:41:00,50.2,15.7,30.18,NNW,330,1.0,5.0,25,0.00,,,0.00,Wunderground v.1.15,2013-02-21 17:41:00,
2013-02-21 12:46:00,50.7,15.2,30.18,West,263,3.0,5.0,24,0.00,,,0.00,Wunderground v.1.15,2013-02-21 17:46:00,
2013-02-21 12:51:00,50.9,18.1,30.18,West,276,1.0,5.0,27,0.00,,,0.00,Wunderground v.1.15,2013-02-21 17:51:00,
2013-02-21 12:56:00,51.2,16.5,30.18,West,281,4.0,5.0,25,0.00,,,0.00,Wunderground v.1.15,2013-02-21 17:56:00,
2013-02-21 13:01:00,50.9,15.3,30.18,WSW,252,3.0,6.0,24,0.00,,,0.00,Wunderground v.1.15,2013-02-21 18:01:00,
2013-02-21 13:06:00,51.0,17.3,30.17,East,94,1.0,6.0,26,0.00,,,0.00,Wunderground v.1.15,2013-02-21 18:06:00,
2013-02-21 13:11:00,51.7,17.0,30.17,WSW,256,1.0,3.0,25,0.00,,,0.00,Wunderground v.1.15,2013-02-21 18:11:00,
2013-02-21 13:16:00,52.6,16.8,30.17,ENE,74,0.0,4.0,24,0.00,,,0.00,Wunderground v.1.15,2013-02-21 18:16:00,
2013-02-21 13:21:00,53.2,16.3,30.16,NE,56,3.0,3.0,23,0.00,,,0.00,Wunderground v.1.15,2013-02-21 18:21:00,
2013-02-21 13:26:00,53.0,18.1,30.16,East,82,1.0,6.0,25,0.00,,,0.00,Wunderground v.1.15,2013-02-21 18:26:00,
2013-02-21 13:31:00,52.9,16.1,30.15,SE,125,3.0,5.0,23,0.00,,,0.00,Wunderground v.1.15,2013-02-21 18:31:00,
2013-02-21 13:36:00,52.5,17.6,30.15,West,270,0.0,5.0,25,0.00,,,0.00,Wunderground v.1.15,2013-02-21 18:36:00,
2013-02-21 13:41:00,52.7,16.9,30.15,NNE,15,1.0,6.0,24,0.00,,,0.00,Wunderground v.1.15,2013-02-21 18:41:00,
2013-02-21 13:46:00,53.0,16.1,30.15,NE,37,0.0,6.0,23,0.00,,,0.00,Wunderground v.1.15,2013-02-21 18:46:00,
2013-02-21 13:51:00,52.8,14.9,30.15,East,95,3.0,4.0,22,0.00,,,0.00,Wunderground v.1.15,2013-02-21 18:51:00,
2013-02-21 13:56:00,52.3,14.5,30.15,NNE,27,1.0,4.0,22,0.00,,,0.00,Wunderground v.1.15,2013-02-21 18:56:00,
2013-02-21 14:01:00,53.0,17.1,30.15,WNW,283,2.0,5.0,24,0.00,,,0.00,Wunderground v.1.15,2013-02-21 19:01:00,
2013-02-21 14:06:00,53.4,18.4,30.14,West,269,4.0,5.0,25,0.00,,,0.00,Wunderground v.1.15,2013-02-21 19:06:00,
2013-02-21 14:12:00,53.5,16.6,30.14,North,359,2.0,6.0,23,0.00,,,0.00,Wunderground v.1.15,2013-02-21 19:12:00,
2013-02-21 14:17:00,53.4,17.5,30.14,NNW,329,1.0,2.0,24,0.00,,,0.00,Wunderground v.1.15,2013-02-21 19:17:00,
2013-02-21 14:22:00,53.7,16.7,30.14,NE,46,2.0,4.0,23,0.00,,,0.00,Wunderground v.1.15,2013-02-21 19:22:00,
2013-02-21 14:27:00,53.9,15.9,30.13,SW,217,1.0,1.0,22,0.00,,,0.00,Wunderground v.1.15,2013-02-21 19:27:00,
2013-02-21 14:32:00,53.4,17.5,30.13,SW,225,1.0,6.0,24,0.00,,,0.00,Wunderground v.1.15,2013-02-21 19:32:00,
2013-02-21 14:37:00,53.8,18.7,30.13,ENE,64,5.0,5.0,25,0.00,,,0.00,Wunderground v.1.15,2013-02-21 19:37:00,
2013-02-21 14:42:00,53.3,17.4,30.13,East,91,1.0,6.0,24,0.00,,,0.00,Wunderground v.1.15,2013-02-21 19:42:00,
2013-02-21 14:47:00,53.4,16.5,30.13,WSW,246,1.0,3.0,23,0.00,,,0.00,Wunderground v.1.15,2013-02-21 19:47:00,
2013-02-21 14:52:00,54.1,19.9,30.13,SE,145,2.0,5.0,26,0.00,,,0.00,Wunderground v.1.15,2013-02-21 19:52:00,
2013-02-21 14:57:00,54.6,19.4,30.13,ESE,122,3.0,4.0,25,0.00,,,0.00,Wunderground v.1.15,2013-02-21 19:57:00,
2013-02-21 15:02:00,54.2,18.1,30.13,ENE,75,3.0,7.0,24,0.00,,,0.00,Wunderground v.1.15,2013-02-21 20:02:00,
2013-02-21 15:07:00,54.1,17.1,30.13,SW,231,0.0,3.0,23,0.00,,,0.00,Wunderground v.1.15,2013-02-21 20:07:00,
2013-02-21 15:12:00,54.6,16.5,30.13,ENE,68,2.0,4.0,22,0.00,,,0.00,Wunderground v.1.15,2013-02-21 20:12:00,
2013-02-21 15:17:00,54.5,15.3,30.13,NW,326,0.0,1.0,21,0.00,,,0.00,Wunderground v.1.15,2013-02-21 20:17:00,
2013-02-21 15:22:00,54.8,16.6,30.13,SSE,165,0.0,2.0,22,0.00,,,0.00,Wunderground v.1.15,2013-02-21 20:22:00,
2013-02-21 15:27:00,54.6,17.5,30.13,ESE,104,2.0,2.0,23,0.00,,,0.00,Wunderground v.1.15,2013-02-21 20:27:00,
2013-02-21 15:32:00,54.7,16.5,30.13,East,87,0.0,3.0,22,0.00,,,0.00,Wunderground v.1.15,2013-02-21 20:32:00,
2013-02-21 15:37:00,55.0,16.8,30.13,ESE,110,0.0,2.0,22,0.00,,,0.00,Wunderground v.1.15,2013-02-21 20:37:00,
2013-02-21 15:42:00,54.9,15.6,30.13,NW,320,0.0,3.0,21,0.00,,,0.00,Wunderground v.1.15,2013-02-21 20:42:00,
2013-02-21 15:47:00,55.3,17.0,30.13,ENE,77,2.0,2.0,22,0.00,,,0.00,Wunderground v.1.15,2013-02-21 20:47:00,
2013-02-21 15:52:00,55.4,14.9,30.14,NW,304,1.0,4.0,20,0.00,,,0.00,Wunderground v.1.15,2013-02-21 20:52:00,
2013-02-21 15:57:00,55.5,17.2,30.14,East,89,0.0,1.0,22,0.00,,,0.00,Wunderground v.1.15,2013-02-21 20:57:00,
2013-02-21 16:02:00,55.1,15.8,30.14,ESE,102,2.0,4.0,21,0.00,,,0.00,Wunderground v.1.15,2013-02-21 21:02:00,
2013-02-21 16:07:00,54.8,16.6,30.14,SSE,151,0.0,1.0,22,0.00,,,0.00,Wunderground v.1.15,2013-02-21 21:07:00,
2013-02-21 16:12:00,55.2,15.9,30.14,WNW,291,1.0,2.0,21,0.00,,,0.00,Wunderground v.1.15,2013-02-21 21:12:00,
2013-02-21 16:17:00,55.5,18.2,30.14,SW,228,1.0,1.0,23,0.00,,,0.00,Wunderground v.1.15,2013-02-21 21:17:00,
2013-02-21 16:22:00,55.1,17.9,30.14,SSE,155,2.0,6.0,23,0.00,,,0.00,Wunderground v.1.15,2013-02-21 21:22:00,
2013-02-21 16:27:00,55.2,18.0,30.14,ESE,105,1.0,4.0,23,0.00,,,0.00,Wunderground v.1.15,2013-02-21 21:27:00,
2013-02-21 16:32:00,55.2,18.0,30.14,ESE,109,2.0,4.0,23,0.00,,,0.00,Wunderground v.1.15,2013-02-21 21:32:00,
2013-02-21 16:37:00,55.1,17.9,30.14,ESE,122,0.0,1.0,23,0.00,,,0.00,Wunderground v.1.15,2013-02-21 21:37:00,
2013-02-21 16:42:00,55.3,18.1,30.15,SE,141,0.0,1.0,23,0.00,,,0.00,Wunderground v.1.15,2013-02-21 21:42:00,
2013-02-21 16:47:00,55.1,17.9,30.14,ESE,121,2.0,2.0,23,0.00,,,0.00,Wunderground v.1.15,2013-02-21 21:47:00,
2013-02-21 16:52:00,54.4,16.3,30.15,ENE,74,0.0,4.0,22,0.00,,,0.00,Wunderground v.1.15,2013-02-21 21:52:00,
2013-02-21 16:57:00,53.8,16.8,30.15,ENE,75,1.0,2.0,23,0.00,,,0.00,Wunderground v.1.15,2013-02-21 21:57:00,
2013-02-21 17:02:00,53.4,20.2,30.15,ESE,108,1.0,2.0,27,0.00,,,0.00,Wunderground v.1.15,2013-02-21 22:02:00,
2013-02-21 17:07:00,52.9,18.9,30.15,East,91,2.0,3.0,26,0.00,,,0.00,Wunderground v.1.15,2013-02-21 22:07:00,
2013-02-21 17:12:00,52.5,19.4,30.16,ESE,109,0.0,3.0,27,0.00,,,0.00,Wunderground v.1.15,2013-02-21 22:12:00,
2013-02-21 17:17:00,52.1,18.2,30.16,ESE,108,0.0,0.0,26,0.00,,,0.00,Wunderground v.1.15,2013-02-21 22:17:00,
2013-02-21 17:22:00,51.9,19.8,30.16,ESE,115,0.0,0.0,28,0.00,,,0.00,Wunderground v.1.15,2013-02-21 22:22:00,
2013-02-21 17:27:00,51.4,22.5,30.16,ESE,116,0.0,0.0,32,0.00,,,0.00,Wunderground v.1.15,2013-02-21 22:27:00,
2013-02-21 17:32:00,51.0,20.6,30.16,ESE,116,0.0,0.0,30,0.00,,,0.00,Wunderground v.1.15,2013-02-21 22:32:00,
2013-02-21 17:37:00,50.5,22.4,30.16,ESE,115,0.0,0.0,33,0.00,,,0.00,Wunderground v.1.15,2013-02-21 22:37:00,
2013-02-21 17:42:00,50.0,22.0,30.16,ESE,116,0.0,0.0,33,0.00,,,0.00,Wunderground v.1.15,2013-02-21 22:42:00,
2013-02-21 17:47:00,49.7,23.8,30.16,ESE,116,0.0,0.0,36,0.00,,,0.00,Wunderground v.1.15,2013-02-21 22:47:00,
2013-02-21 17:52:00,49.1,23.9,30.15,East,93,1.0,2.0,37,0.00,,,0.00,Wunderground v.1.15,2013-02-21 22:52:00,
2013-02-21 17:57:00,48.4,25.2,30.15,East,93,0.0,0.0,40,0.00,,,0.00,Wunderground v.1.15,2013-02-21 22:57:00,
2013-02-21 18:02:00,47.9,22.8,30.15,East,93,0.0,0.0,37,0.00,,,0.00,Wunderground v.1.15,2013-02-21 23:02:00,
2013-02-21 18:07:00,47.7,22.7,30.15,East,94,0.0,0.0,37,0.00,,,0.00,Wunderground v.1.15,2013-02-21 23:07:00,
2013-02-21 18:12:00,47.6,23.2,30.15,East,95,0.0,1.0,38,0.00,,,0.00,Wunderground v.1.15,2013-02-21 23:12:00,
2013-02-21 18:18:00,47.4,23.0,30.15,ENE,68,1.0,1.0,38,0.00,,,0.00,Wunderground v.1.15,2013-02-21 23:18:00,
2013-02-21 18:23:00,46.9,23.8,30.15,East,88,0.0,2.0,40,0.00,,,0.00,Wunderground v.1.15,2013-02-21 23:23:00,
2013-02-21 18:28:00,46.7,21.8,30.15,ESE,120,0.0,0.0,37,0.00,,,0.00,Wunderground v.1.15,2013-02-21 23:28:00,
2013-02-21 18:33:00,46.8,22.5,30.16,ESE,120,0.0,0.0,38,0.00,,,0.00,Wunderground v.1.15,2013-02-21 23:33:00,
2013-02-21 18:38:00,46.5,21.6,30.17,ESE,121,0.0,0.0,37,0.00,,,0.00,Wunderground v.1.15,2013-02-21 23:38:00,
2013-02-21 18:43:00,46.3,21.4,30.17,ESE,120,0.0,0.0,37,0.00,,,0.00,Wunderground v.1.15,2013-02-21 23:43:00,
2013-02-21 18:48:00,45.8,27.2,30.18,ESE,120,0.0,0.0,48,0.00,,,0.00,Wunderground v.1.15,2013-02-21 23:48:00,
2013-02-21 18:53:00,45.3,25.2,30.18,ESE,120,0.0,0.0,45,0.00,,,0.00,Wunderground v.1.15,2013-02-21 23:53:00,
2013-02-21 18:58:00,44.9,23.7,30.19,ESE,121,0.0,0.0,43,0.00,,,0.00,Wunderground v.1.15,2013-02-21 23:58:00,
2013-02-21 19:03:00,44.6,25.1,30.19,ESE,121,0.0,0.0,46,0.00,,,0.00,Wunderground v.1.15,2013-02-22 00:03:00,
2013-02-21 19:08:00,44.2,25.2,30.20,ESE,121,0.0,0.0,47,0.00,,,0.00,Wunderground v.1.15,2013-02-22 00:08:00,
2013-02-21 19:13:00,43.9,31.3,30.19,ESE,121,0.0,0.0,61,0.00,,,0.00,Wunderground v.1.15,2013-02-22 00:13:00,
2013-02-21 19:18:00,43.4,29.2,30.20,ESE,121,0.0,0.0,57,0.00,,,0.00,Wunderground v.1.15,2013-02-22 00:18:00,
2013-02-21 19:23:00,43.1,27.6,30.19,ESE,122,0.0,0.0,54,0.00,,,0.00,Wunderground v.1.15,2013-02-22 00:23:00,
2013-02-21 19:28:00,42.9,26.9,30.19,ESE,121,0.0,0.0,53,0.00,,,0.00,Wunderground v.1.15,2013-02-22 00:28:00,
2013-02-21 19:33:00,42.8,28.2,30.19,ESE,121,0.0,0.0,56,0.00,,,0.00,Wunderground v.1.15,2013-02-22 00:33:00,
2013-02-21 19:38:00,42.7,26.3,30.20,ESE,122,0.0,0.0,52,0.00,,,0.00,Wunderground v.1.15,2013-02-22 00:38:00,
2013-02-21 19:43:00,42.6,26.6,30.19,ESE,121,0.0,0.0,53,0.00,,,0.00,Wunderground v.1.15,2013-02-22 00:43:00,
2013-02-21 19:48:00,42.7,25.8,30.19,ESE,121,0.0,0.0,51,0.00,,,0.00,Wunderground v.1.15,2013-02-22 00:48:00,
2013-02-21 19:53:00,42.7,26.3,30.19,ESE,121,0.0,0.0,52,0.00,,,0.00,Wunderground v.1.15,2013-02-22 00:53:00,
2013-02-21 19:58:00,42.6,25.7,30.19,ESE,121,0.0,0.0,51,0.00,,,0.00,Wunderground v.1.15,2013-02-22 00:58:00,
2013-02-21 20:03:00,42.5,26.6,30.19,ESE,112,0.0,0.0,53,0.00,,,0.00,Wunderground v.1.15,2013-02-22 01:03:00,
2013-02-21 20:08:00,42.4,28.2,30.19,ESE,111,0.0,0.0,57,0.00,,,0.00,Wunderground v.1.15,2013-02-22 01:08:00,
2013-02-21 20:13:00,42.3,27.3,30.19,ESE,111,0.0,0.0,55,0.00,,,0.00,Wunderground v.1.15,2013-02-22 01:13:00,
2013-02-21 20:18:00,42.3,27.3,30.19,ESE,113,0.0,0.0,55,0.00,,,0.00,Wunderground v.1.15,2013-02-22 01:18:00,
2013-02-21 20:23:00,42.5,25.6,30.19,SE,124,0.0,1.0,51,0.00,,,0.00,Wunderground v.1.15,2013-02-22 01:23:00,
2013-02-21 20:28:00,43.2,25.3,30.19,East,81,1.0,2.0,49,0.00,,,0.00,Wunderground v.1.15,2013-02-22 01:28:00,
2013-02-21 20:33:00,43.7,24.8,30.18,ESE,105,0.0,3.0,47,0.00,,,0.00,Wunderground v.1.15,2013-02-22 01:33:00,
2013-02-21 20:38:00,44.1,24.6,30.18,ENE,74,2.0,6.0,46,0.00,,,0.00,Wunderground v.1.15,2013-02-22 01:38:00,
2013-02-21 20:43:00,44.6,22.9,30.18,East,89,0.0,6.0,42,0.00,,,0.00,Wunderground v.1.15,2013-02-22 01:43:00,
2013-02-21 20:48:00,44.8,21.9,30.19,East,84,2.0,2.0,40,0.00,,,0.00,Wunderground v.1.15,2013-02-22 01:48:00,
2013-02-21 20:53:00,45.0,21.5,30.19,East,91,1.0,2.0,39,0.00,,,0.00,Wunderground v.1.15,2013-02-22 01:53:00,
2013-02-21 20:58:00,45.1,21.6,30.19,East,94,1.0,1.0,39,0.00,,,0.00,Wunderground v.1.15,2013-02-22 01:58:00,
2013-02-21 21:03:00,45.3,21.2,30.20,ESE,105,0.0,3.0,38,0.00,,,0.00,Wunderground v.1.15,2013-02-22 02:03:00,
2013-02-21 21:08:00,45.4,21.9,30.20,ENE,73,0.0,1.0,39,0.00,,,0.00,Wunderground v.1.15,2013-02-22 02:08:00,
2013-02-21 21:13:00,45.2,21.7,30.21,ENE,73,0.0,1.0,39,0.00,,,0.00,Wunderground v.1.15,2013-02-22 02:13:00,
2013-02-21 21:19:00,45.1,21.6,30.22,East,101,0.0,0.0,39,0.00,,,0.00,Wunderground v.1.15,2013-02-22 02:19:00,
2013-02-21 21:24:00,45.1,21.0,30.22,East,99,0.0,0.0,38,0.00,,,0.00,Wunderground v.1.15,2013-02-22 02:24:00,
2013-02-21 21:29:00,44.9,21.4,30.23,SE,125,0.0,0.0,39,0.00,,,0.00,Wunderground v.1.15,2013-02-22 02:29:00,
2013-02-21 21:34:00,44.6,22.3,30.24,NNE,33,0.0,2.0,41,0.00,,,0.00,Wunderground v.1.15,2013-02-22 02:34:00,
2013-02-21 21:39:00,44.4,23.8,30.23,NNE,33,0.0,1.0,44,0.00,,,0.00,Wunderground v.1.15,2013-02-22 02:39:00,
2013-02-21 21:44:00,44.1,26.1,30.24,NNE,33,0.0,1.0,49,0.00,,,0.00,Wunderground v.1.15,2013-02-22 02:44:00,
2013-02-21 21:49:00,43.8,26.3,30.24,NE,34,0.0,0.0,50,0.00,,,0.00,Wunderground v.1.15,2013-02-22 02:49:00,
2013-02-21 21:54:00,43.5,26.1,30.24,NE,36,0.0,0.0,50,0.00,,,0.00,Wunderground v.1.15,2013-02-22 02:54:00,
2013-02-21 21:59:00,43.1,24.7,30.24,NE,46,0.0,0.0,48,0.00,,,0.00,Wunderground v.1.15,2013-02-22 02:59:00,
2013-02-21 22:04:00,43.1,22.6,30.24,East,97,0.0,0.0,44,0.00,,,0.00,Wunderground v.1.15,2013-02-22 03:04:00,
2013-02-21 22:09:00,43.4,22.9,30.23,East,90,2.0,2.0,44,0.00,,,0.00,Wunderground v.1.15,2013-02-22 03:09:00,
2013-02-21 22:14:00,43.5,23.0,30.22,ENE,75,1.0,3.0,44,0.00,,,0.00,Wunderground v.1.15,2013-02-22 03:14:00,
2013-02-21 22:19:00,43.6,22.5,30.22,SE,130,0.0,4.0,43,0.00,,,0.00,Wunderground v.1.15,2013-02-22 03:19:00,
2013-02-21 22:24:00,44.0,21.8,30.22,SE,128,0.0,5.0,41,0.00,,,0.00,Wunderground v.1.15,2013-02-22 03:24:00,
2013-02-21 22:29:00,44.2,22.5,30.22,ESE,102,3.0,3.0,42,0.00,,,0.00,Wunderground v.1.15,2013-02-22 03:29:00,
2013-02-21 22:34:00,44.3,21.5,30.22,East,85,2.0,4.0,40,0.00,,,0.00,Wunderground v.1.15,2013-02-22 03:34:00,
2013-02-21 22:39:00,44.2,22.0,30.23,ESE,105,1.0,3.0,41,0.00,,,0.00,Wunderground v.1.15,2013-02-22 03:39:00,
2013-02-21 22:44:00,44.3,21.5,30.23,East,91,2.0,3.0,40,0.00,,,0.00,Wunderground v.1.15,2013-02-22 03:44:00,
2013-02-21 22:49:00,44.4,22.1,30.23,ENE,57,1.0,3.0,41,0.00,,,0.00,Wunderground v.1.15,2013-02-22 03:49:00,
2013-02-21 22:54:00,44.3,22.1,30.24,NNE,15,0.0,3.0,41,0.00,,,0.00,Wunderground v.1.15,2013-02-22 03:54:00,
2013-02-21 22:59:00,44.3,21.5,30.25,ESE,107,0.0,2.0,40,0.00,,,0.00,Wunderground v.1.15,2013-02-22 03:59:00,
2013-02-21 23:04:00,44.3,22.6,30.26,ESE,109,1.0,2.0,42,0.00,,,0.00,Wunderground v.1.15,2013-02-22 04:04:00,
2013-02-21 23:09:00,44.4,22.7,30.26,East,92,0.0,1.0,42,0.00,,,0.00,Wunderground v.1.15,2013-02-22 04:09:00,
2013-02-21 23:14:00,44.3,22.6,30.27,East,92,0.0,1.0,42,0.00,,,0.00,Wunderground v.1.15,2013-02-22 04:14:00,
2013-02-21 23:19:00,44.0,22.9,30.27,NE,37,0.0,1.0,43,0.00,,,0.00,Wunderground v.1.15,2013-02-22 04:19:00,
2013-02-21 23:24:00,43.9,22.3,30.27,NE,37,0.0,1.0,42,0.00,,,0.00,Wunderground v.1.15,2013-02-22 04:24:00,
2013-02-21 23:29:00,43.9,23.9,30.27,NE,37,0.0,0.0,45,0.00,,,0.00,Wunderground v.1.15,2013-02-22 04:29:00,
2013-02-21 23:34:00,43.8,25.4,30.26,ENE,78,0.0,2.0,48,0.00,,,0.00,Wunderground v.1.15,2013-02-22 04:34:00,
2013-02-21 23:39:00,43.3,27.3,30.26,East,88,0.0,1.0,53,0.00,,,0.00,Wunderground v.1.15,2013-02-22 04:39:00,
2013-02-21 23:44:00,42.9,27.8,30.27,East,86,1.0,1.0,55,0.00,,,0.00,Wunderground v.1.15,2013-02-22 04:44:00,
2013-02-21 23:50:00,42.6,27.5,30.28,East,86,0.0,0.0,55,0.00,,,0.00,Wunderground v.1.15,2013-02-22 04:50:00,
2013-02-21 23:55:00,42.3,28.1,30.29,East,86,0.0,0.0,57,0.00,,,0.00,Wunderground v.1.15,2013-02-22 04:55:00,